createdAt,value
2022-11-30T00:00:55.583Z,28.33
2022-11-30T00:04:57.454Z,29.67
2022-11-30T00:08:59.430Z,34.57
2022-11-30T00:13:01.459Z,33.60
2022-11-30T00:17:03.356Z,33.27
2022-11-30T00:21:08.924Z,30.70
2022-11-30T00:25:10.903Z,28.30
2022-11-30T00:29:13.138Z,31.63
2022-11-30T00:33:15.091Z,32.50
2022-11-30T00:37:17.079Z,31.73
2022-11-30T00:41:19.468Z,32.83
2022-11-30T00:45:21.345Z,32.37
2022-11-30T00:49:23.289Z,29.00
2022-11-30T00:53:25.077Z,32.00
2022-11-30T00:57:26.912Z,27.87
2022-11-30T01:01:28.819Z,29.73
2022-11-30T01:05:32.239Z,29.83
2022-11-30T01:09:34.170Z,27.60
2022-11-30T01:13:36.030Z,30.40
2022-11-30T01:17:37.913Z,26.77
2022-11-30T01:21:39.896Z,30.00
2022-11-30T01:25:41.840Z,32.03
2022-11-30T01:29:43.727Z,30.03
2022-11-30T01:33:55.140Z,25.87
2022-11-30T01:37:57.038Z,25.43
2022-11-30T01:41:59.121Z,28.47
2022-11-30T01:46:01.796Z,26.87
2022-11-30T01:50:11.214Z,28.70
2022-11-30T01:54:16.431Z,29.97
2022-11-30T01:58:36.683Z,25.93
2022-11-30T02:03:21.105Z,27.73
2022-11-30T02:07:23.107Z,23.67
2022-11-30T02:11:25.109Z,26.40
2022-11-30T02:15:29.784Z,25.43
2022-11-30T02:19:57.367Z,28.60
2022-11-30T02:24:12.346Z,27.67
2022-11-30T02:28:51.492Z,28.83
2022-11-30T02:33:20.809Z,29.00
2022-11-30T02:37:22.786Z,29.03
2022-11-30T02:41:24.609Z,26.77
2022-11-30T02:45:56.352Z,27.87
2022-11-30T02:50:18.997Z,26.63
2022-11-30T02:54:20.778Z,27.83
2022-11-30T02:58:22.825Z,25.83
2022-11-30T03:02:31.170Z,27.47
2022-11-30T03:06:40.064Z,25.03
2022-11-30T03:10:41.870Z,28.00
2022-11-30T03:14:50.144Z,23.47
2022-11-30T03:18:58.059Z,24.30
2022-11-30T03:23:03.184Z,25.50
2022-11-30T03:27:05.039Z,22.07
2022-11-30T03:31:06.972Z,26.27
2022-11-30T03:35:09.151Z,27.10
2022-11-30T03:39:11.156Z,28.63
2022-11-30T03:43:12.978Z,23.70
2022-11-30T03:47:14.922Z,25.07
2022-11-30T03:51:16.855Z,27.27
2022-11-30T03:55:18.859Z,24.47
2022-11-30T03:59:20.700Z,27.33
2022-11-30T04:03:25.324Z,27.00
2022-11-30T04:07:27.351Z,25.23
2022-11-30T04:11:29.447Z,26.03
2022-11-30T04:15:31.301Z,24.90
2022-11-30T04:19:33.118Z,23.73
2022-11-30T04:23:38.389Z,27.57
2022-11-30T04:27:40.241Z,21.37
2022-11-30T04:31:42.185Z,25.40
2022-11-30T04:35:48.998Z,26.17
2022-11-30T04:39:50.896Z,24.93
2022-11-30T04:43:52.747Z,24.97
2022-11-30T04:47:54.649Z,28.30
2022-11-30T04:51:58.772Z,24.33
2022-11-30T04:56:06.853Z,27.20
2022-11-30T05:00:10.412Z,25.43
2022-11-30T05:04:12.357Z,26.60
2022-11-30T05:08:14.350Z,26.97
2022-11-30T05:12:16.298Z,29.40
2022-11-30T05:16:26.985Z,27.70
2022-11-30T05:42:40.557Z,32.57
2022-11-30T05:47:01.381Z,31.97
2022-11-30T05:51:23.502Z,29.63
2022-11-30T05:56:16.608Z,31.40
2022-11-30T06:00:32.121Z,27.90
2022-11-30T06:04:49.706Z,25.97
2022-11-30T06:14:26.006Z,28.10
2022-11-30T06:18:30.586Z,27.20
2022-11-30T06:24:01.290Z,29.53
2022-11-30T06:28:32.792Z,30.17
2022-11-30T06:32:34.944Z,23.93
2022-11-30T06:36:40.143Z,26.67
2022-11-30T06:41:34.573Z,23.93
2022-11-30T06:45:45.237Z,21.10
2022-11-30T06:49:47.631Z,23.13
2022-11-30T06:53:49.824Z,26.73
2022-11-30T06:57:54.702Z,25.67
2022-11-30T07:02:31.189Z,24.93
2022-11-30T07:06:35.754Z,24.83
2022-11-30T07:10:42.361Z,26.33
2022-11-30T07:15:33.592Z,29.03
2022-11-30T07:19:22.926Z,24.83
2022-11-30T07:24:15.874Z,23.57
2022-11-30T07:50:49.059Z,24.70
2022-11-30T07:59:59.294Z,24.67
2022-11-30T08:04:07.153Z,26.23
2022-11-30T08:08:20.913Z,24.10
2022-11-30T08:13:37.173Z,23.80
2022-11-30T08:17:44.857Z,22.67
2022-11-30T08:22:04.327Z,22.70
2022-11-30T08:26:59.462Z,30.33
2022-11-30T08:31:09.123Z,21.60
2022-11-30T08:35:12.089Z,24.03
2022-11-30T08:39:15.672Z,21.17
2022-11-30T08:43:23.638Z,23.10
2022-11-30T08:48:09.850Z,22.27
2022-11-30T08:54:23.027Z,24.70
2022-11-30T08:58:29.108Z,24.70
2022-11-30T09:24:36.472Z,27.40
2022-11-30T09:28:47.046Z,31.20
2022-11-30T09:32:49.327Z,28.03
2022-11-30T09:36:53.779Z,26.27
2022-11-30T09:42:11.391Z,25.07
2022-11-30T09:47:31.871Z,26.70
2022-11-30T09:52:26.430Z,25.60
2022-11-30T09:56:35.341Z,24.47
2022-11-30T10:28:24.251Z,23.57
2022-11-30T10:39:45.590Z,26.70
2022-11-30T20:55:45.899Z,42.73
2022-11-30T20:59:56.425Z,39.83
2022-11-30T21:04:19.127Z,38.20
2022-11-30T21:16:09.352Z,41.53
2022-11-30T21:42:56.048Z,40.83
